createdAt,value
2023-01-17T00:02:31.893Z,98458.97
2023-01-17T00:05:51.959Z,98467.59
2023-01-17T00:09:13.592Z,98460.44
2023-01-17T00:12:16.187Z,98467.84
2023-01-17T00:15:19.772Z,98456.75
2023-01-17T00:18:22.330Z,98471.72
2023-01-17T00:21:42.675Z,98475.97
2023-01-17T00:25:04.379Z,98466.13
2023-01-17T00:28:05.929Z,98474.75
2023-01-17T00:31:08.182Z,98475.94
2023-01-17T00:34:09.668Z,98477.88
2023-01-17T00:37:11.115Z,98490.84
2023-01-17T00:40:14.088Z,98492.84
2023-01-17T00:43:36.774Z,98504.31
2023-01-17T00:46:57.191Z,98524.03
2023-01-17T00:50:17.456Z,98526.31
2023-01-17T00:53:37.587Z,98521.13
2023-01-17T00:56:59.043Z,98519.03
2023-01-17T01:00:19.309Z,98525.66
2023-01-17T01:03:39.616Z,98527.53
2023-01-17T01:06:59.985Z,98540.88
2023-01-17T01:10:20.320Z,98539.97
2023-01-17T01:13:42.897Z,98524.06
2023-01-17T01:17:03.268Z,98535.94
2023-01-17T01:20:24.068Z,98535.94
2023-01-17T01:23:44.407Z,98539.13
2023-01-17T01:27:04.797Z,98546.22
2023-01-17T01:30:27.511Z,98540.72
2023-01-17T01:33:29.037Z,98541.53
2023-01-17T01:36:31.637Z,98546.22
2023-01-17T01:39:34.259Z,98561.13
2023-01-17T01:42:36.833Z,98560.69
2023-01-17T01:45:40.813Z,98559.09
2023-01-17T01:48:45.301Z,98566.94
2023-01-17T01:51:50.179Z,98585.31
2023-01-17T01:54:54.052Z,98569.53
2023-01-17T01:57:58.895Z,98581.25
2023-01-17T02:01:03.075Z,98582.06
2023-01-17T02:04:09.680Z,98574.16
2023-01-17T02:07:13.757Z,98577.34
2023-01-17T02:10:17.011Z,98591.97
2023-01-17T02:13:20.644Z,98598.78
2023-01-17T02:16:43.842Z,98585.56
2023-01-17T02:20:29.852Z,98592.72
2023-01-17T02:24:09.703Z,98600.22
2023-01-17T02:27:17.439Z,98596.63
2023-01-17T02:30:39.788Z,98608.47
2023-01-17T02:33:45.548Z,98617.91
2023-01-17T02:36:50.835Z,98615.16
2023-01-17T02:39:55.247Z,98611.97
2023-01-17T02:42:59.290Z,98609.22
2023-01-17T02:46:03.294Z,98607.63
2023-01-17T02:49:05.902Z,98604.88
2023-01-17T02:52:18.311Z,98607.19
2023-01-17T02:55:25.422Z,98606.75
2023-01-17T02:58:39.650Z,98601.97
2023-01-17T03:01:49.516Z,98600.22
2023-01-17T03:04:52.892Z,98605.00
2023-01-17T03:07:55.401Z,98610.50
2023-01-17T03:10:57.995Z,98600.22
2023-01-17T03:14:00.601Z,98606.63
2023-01-17T03:17:04.623Z,98608.22
2023-01-17T03:20:07.704Z,98603.13
2023-01-17T03:23:10.281Z,98614.56
2023-01-17T03:26:12.847Z,98615.03
2023-01-17T03:29:16.377Z,98620.94
2023-01-17T03:32:20.255Z,98622.53
2023-01-17T03:35:22.824Z,98621.81
2023-01-17T03:38:25.797Z,98616.31
2023-01-17T03:41:28.421Z,98606.81
2023-01-17T03:44:30.996Z,98622.63
2023-01-17T03:47:35.505Z,98621.81
2023-01-17T03:50:38.022Z,98623.34
2023-01-17T03:53:40.539Z,98620.94
2023-01-17T03:56:43.052Z,98632.34
2023-01-17T03:59:46.031Z,98633.47
2023-01-17T04:02:49.973Z,98633.03
2023-01-17T04:05:52.552Z,98635.00
2023-01-17T04:08:55.153Z,98631.09
2023-01-17T04:11:57.735Z,98631.09
2023-01-17T04:15:00.321Z,98644.50
2023-01-17T04:18:04.876Z,98642.53
2023-01-17T04:21:07.706Z,98642.16
2023-01-17T04:24:10.296Z,98641.75
2023-01-17T04:27:14.263Z,98648.47
2023-01-17T04:30:17.049Z,98651.22
2023-01-17T04:33:21.592Z,98646.16
2023-01-17T04:36:24.183Z,98648.56
2023-01-17T04:39:26.752Z,98644.56
2023-01-17T04:42:29.315Z,98647.75
2023-01-17T04:45:31.899Z,98655.56
2023-01-17T04:48:35.818Z,98655.56
2023-01-17T04:51:38.335Z,98648.47
2023-01-17T04:54:40.897Z,98646.09
2023-01-17T04:57:43.471Z,98649.19
2023-01-17T05:00:50.652Z,98653.81
2023-01-17T05:03:54.619Z,98660.50
2023-01-17T05:06:57.151Z,98652.16
2023-01-17T05:10:00.767Z,98667.84
2023-01-17T05:13:03.305Z,98668.59
2023-01-17T05:16:06.230Z,98674.88
2023-01-17T05:19:10.252Z,98674.09
2023-01-17T05:22:15.760Z,98681.09
2023-01-17T05:25:18.291Z,98677.13
2023-01-17T05:28:20.902Z,98691.22
2023-01-17T05:31:23.526Z,98688.81
2023-01-17T05:34:27.421Z,98687.22
2023-01-17T05:37:30.014Z,98688.75
2023-01-17T05:40:33.446Z,98694.31
2023-01-17T05:43:36.021Z,98691.13
2023-01-17T05:46:38.608Z,98686.81
2023-01-17T05:49:45.110Z,98709.16
2023-01-17T05:52:50.299Z,98709.06
2023-01-17T05:55:52.883Z,98701.19
2023-01-17T05:58:55.491Z,98709.78
2023-01-17T06:01:58.193Z,98712.91
2023-01-17T06:05:03.550Z,98704.56
2023-01-17T06:08:06.571Z,98706.41
2023-01-17T06:11:09.156Z,98718.94
2023-01-17T06:14:11.946Z,98715.75
2023-01-17T06:17:15.524Z,98716.09
2023-01-17T06:20:19.624Z,98711.66
2023-01-17T06:23:22.214Z,98716.38
2023-01-17T06:26:24.794Z,98718.25
2023-01-17T06:29:27.310Z,98721.69
2023-01-17T06:32:29.893Z,98716.53
2023-01-17T06:35:33.776Z,98718.34
2023-01-17T06:38:36.342Z,98719.13
2023-01-17T06:41:39.076Z,98717.88
2023-01-17T06:44:41.616Z,98725.25
2023-01-17T06:47:44.328Z,98719.66
2023-01-17T06:50:49.692Z,98720.72
2023-01-17T06:53:52.232Z,98717.09
2023-01-17T06:56:54.763Z,98717.78
2023-01-17T06:59:57.291Z,98716.91
2023-01-17T07:02:59.857Z,98718.03
2023-01-17T07:06:03.816Z,98723.09
2023-01-17T07:09:06.376Z,98721.47
2023-01-17T07:12:08.924Z,98727.69
2023-01-17T07:15:12.454Z,98727.59
2023-01-17T07:18:16.208Z,98735.75
2023-01-17T07:21:20.155Z,98729.38
2023-01-17T07:24:22.728Z,98729.59
2023-01-17T07:27:25.470Z,98730.31
2023-01-17T07:30:27.980Z,98725.50
2023-01-17T07:33:30.547Z,98725.50
2023-01-17T07:36:34.428Z,98727.81
2023-01-17T07:39:37.325Z,98726.22
2023-01-17T07:42:39.949Z,98728.50
2023-01-17T07:45:43.678Z,98735.53
2023-01-17T07:48:46.215Z,98737.72
2023-01-17T07:51:50.139Z,98731.22
2023-01-17T07:54:52.659Z,98740.41
2023-01-17T07:57:55.224Z,98735.97
2023-01-17T08:01:02.486Z,98738.97
2023-01-17T08:04:05.274Z,98744.47
2023-01-17T08:07:09.190Z,98752.03
2023-01-17T08:10:17.803Z,98750.66
2023-01-17T08:13:20.903Z,98753.19
2023-01-17T08:16:23.543Z,98753.44
2023-01-17T08:19:26.074Z,98746.34
2023-01-17T08:22:30.938Z,98739.72
2023-01-17T08:25:35.190Z,98742.94
2023-01-17T08:28:37.764Z,98748.50
2023-01-17T08:31:40.363Z,98751.81
2023-01-17T08:34:43.003Z,98744.03
2023-01-17T08:37:46.916Z,98755.34
2023-01-17T08:40:49.632Z,98728.44
2023-01-17T08:43:52.390Z,98741.69
2023-01-17T08:46:54.971Z,98738.00
2023-01-17T08:49:59.446Z,98744.63
2023-01-17T08:53:03.366Z,98743.44
2023-01-17T08:56:06.500Z,98755.41
2023-01-17T08:59:11.236Z,98749.63
2023-01-17T09:02:14.756Z,98746.16
2023-01-17T09:05:17.524Z,98759.66
2023-01-17T09:08:21.477Z,98761.22
2023-01-17T09:11:24.013Z,98758.75
2023-01-17T09:14:26.618Z,98758.56
2023-01-17T09:17:29.205Z,98757.69
2023-01-17T09:20:31.778Z,98763.03
2023-01-17T09:23:35.662Z,98769.25
2023-01-17T09:26:38.254Z,98772.69
2023-01-17T09:29:40.824Z,98774.28
2023-01-17T09:32:43.429Z,98776.31
2023-01-17T09:35:46.011Z,98779.53
2023-01-17T09:38:50.199Z,98782.63
2023-01-17T09:41:55.610Z,98787.25
2023-01-17T09:44:58.201Z,98781.56
2023-01-17T09:48:01.009Z,98787.41
2023-01-17T09:51:07.276Z,98797.97
2023-01-17T09:54:15.444Z,98801.16
2023-01-17T09:57:35.619Z,98799.72
2023-01-17T10:00:46.367Z,98808.19
2023-01-17T10:03:57.943Z,98804.81
2023-01-17T10:07:07.920Z,98813.69
2023-01-17T10:10:35.181Z,98806.50
2023-01-17T10:13:40.231Z,98808.06
2023-01-17T10:16:45.345Z,98813.91
2023-01-17T10:19:58.459Z,98812.44
2023-01-17T10:23:08.326Z,98813.53
2023-01-17T10:26:13.267Z,98820.94
2023-01-17T10:29:20.002Z,98820.78
2023-01-17T10:32:23.816Z,98819.88
2023-01-17T10:35:28.332Z,98829.22
2023-01-17T10:38:32.229Z,98819.66
2023-01-17T10:41:38.134Z,98826.63
2023-01-17T10:44:42.325Z,98825.06
2023-01-17T10:47:47.809Z,98817.13
2023-01-17T10:50:53.859Z,98819.91
2023-01-17T10:54:04.996Z,98813.28
2023-01-17T10:57:13.154Z,98818.88
2023-01-17T11:00:29.732Z,98824.72
2023-01-17T11:03:32.331Z,98821.44
2023-01-17T11:06:49.736Z,98818.75
2023-01-17T11:10:00.094Z,98829.81
2023-01-17T11:13:04.381Z,98814.72
2023-01-17T11:16:08.290Z,98820.44
2023-01-17T11:19:16.205Z,98815.41
2023-01-17T11:22:18.852Z,98813.19
2023-01-17T11:25:23.039Z,98815.31
2023-01-17T11:28:30.393Z,98811.41
2023-01-17T11:31:33.021Z,98813.78
2023-01-17T11:34:35.540Z,98811.16
2023-01-17T11:37:38.631Z,98809.34
2023-01-17T11:40:41.817Z,98807.91
2023-01-17T11:43:52.298Z,98809.63
2023-01-17T11:47:09.412Z,98798.22
2023-01-17T11:50:24.484Z,98812.56
2023-01-17T11:53:28.920Z,98810.63
2023-01-17T11:56:32.920Z,98802.69
2023-01-17T11:59:37.614Z,98805.00
2023-01-17T12:03:00.918Z,98795.38
2023-01-17T12:06:04.574Z,98800.19
2023-01-17T12:09:12.552Z,98801.34
2023-01-17T12:12:51.755Z,98792.19
2023-01-17T12:16:01.582Z,98785.84
2023-01-17T12:19:26.546Z,98787.03
2023-01-17T12:22:46.122Z,98781.78
2023-01-17T12:26:00.945Z,98786.53
2023-01-17T12:29:43.844Z,98783.38
2023-01-17T12:33:03.235Z,98773.47
2023-01-17T12:36:09.502Z,98781.38
2023-01-17T12:39:14.273Z,98777.00
2023-01-17T12:42:19.193Z,98767.91
2023-01-17T12:45:24.247Z,98770.72
2023-01-17T12:48:30.253Z,98772.34
2023-01-17T12:51:34.936Z,98769.13
2023-01-17T12:54:39.216Z,98768.25
2023-01-17T12:57:43.058Z,98771.88
2023-01-17T13:00:47.131Z,98764.69
2023-01-17T13:03:57.831Z,98768.31
2023-01-17T13:07:06.069Z,98769.16
2023-01-17T13:10:22.144Z,98751.31
2023-01-17T13:13:25.914Z,98764.88
2023-01-17T13:16:31.202Z,98760.13
2023-01-17T13:19:41.531Z,98765.25
2023-01-17T13:22:44.231Z,98763.69
2023-01-17T13:25:48.076Z,98771.59
2023-01-17T13:28:54.897Z,98774.38
2023-01-17T13:32:00.143Z,98777.97
2023-01-17T13:35:19.383Z,98776.81
2023-01-17T13:38:54.841Z,98775.63
2023-01-17T13:42:04.333Z,98777.19
2023-01-17T13:45:10.652Z,98784.31
2023-01-17T13:48:30.475Z,98778.78
2023-01-17T13:52:02.678Z,98778.75
2023-01-17T13:55:07.113Z,98774.38
2023-01-17T13:58:28.016Z,98779.84
2023-01-17T14:01:50.009Z,98785.31
2023-01-17T14:05:09.639Z,98797.09
2023-01-17T14:08:16.097Z,98787.91
2023-01-17T14:11:18.694Z,98798.94
2023-01-17T14:14:50.019Z,98797.34
2023-01-17T14:17:56.940Z,98791.75
2023-01-17T14:21:07.981Z,98790.16
2023-01-17T14:24:16.411Z,98801.25
2023-01-17T14:27:22.876Z,98812.28
2023-01-17T14:30:26.610Z,98801.06
2023-01-17T14:33:30.097Z,98801.03
2023-01-17T14:36:34.465Z,98809.66
2023-01-17T14:39:46.102Z,98805.22
2023-01-17T14:42:49.612Z,98814.72
2023-01-17T14:45:57.621Z,98819.50
2023-01-17T14:49:00.908Z,98815.13
2023-01-17T14:52:04.422Z,98826.88
2023-01-17T14:55:15.597Z,98809.28
2023-01-17T14:58:18.177Z,98828.84
2023-01-17T15:01:21.097Z,98821.66
2023-01-17T15:04:26.955Z,98819.97
2023-01-17T15:07:31.494Z,98827.84
2023-01-17T15:10:35.361Z,98822.22
2023-01-17T15:13:44.645Z,98819.78
2023-01-17T15:16:47.935Z,98820.47
2023-01-17T15:19:51.993Z,98824.66
2023-01-17T15:22:54.534Z,98826.22
2023-01-17T15:25:58.435Z,98823.00
2023-01-17T15:29:03.183Z,98822.56
2023-01-17T15:32:06.813Z,98820.94
2023-01-17T15:35:17.818Z,98823.38
2023-01-17T15:38:20.346Z,98827.28
2023-01-17T15:41:25.453Z,98824.09
2023-01-17T15:44:46.876Z,98833.97
2023-01-17T15:47:50.909Z,98835.91
2023-01-17T15:50:58.879Z,98831.88
2023-01-17T15:54:01.461Z,98830.25
2023-01-17T15:57:18.534Z,98837.28
2023-01-17T16:00:22.180Z,98845.91
2023-01-17T16:03:25.754Z,98843.47
2023-01-17T16:06:38.107Z,98848.50
2023-01-17T16:09:42.820Z,98849.59
2023-01-17T16:12:46.890Z,98851.53
2023-01-17T16:15:49.517Z,98843.97
2023-01-17T16:18:57.678Z,98849.88
2023-01-17T16:22:02.746Z,98846.25
2023-01-17T16:25:13.231Z,98856.00
2023-01-17T16:28:17.111Z,98859.44
2023-01-17T16:31:19.681Z,98858.84
2023-01-17T16:34:23.795Z,98856.63
2023-01-17T16:37:26.398Z,98858.75
2023-01-17T16:40:29.855Z,98856.94
2023-01-17T16:43:33.768Z,98860.75
2023-01-17T16:46:38.468Z,98868.44
2023-01-17T16:49:41.090Z,98875.34
2023-01-17T16:52:43.633Z,98867.78
2023-01-17T16:55:46.198Z,98870.91
2023-01-17T16:58:51.918Z,98879.97
2023-01-17T17:01:54.845Z,98885.44
2023-01-17T17:04:57.463Z,98886.13
2023-01-17T17:08:00.265Z,98885.97
2023-01-17T17:11:12.832Z,98890.94
2023-01-17T17:14:16.884Z,98899.03
2023-01-17T17:17:19.487Z,98898.16
2023-01-17T17:20:25.073Z,98898.88
2023-01-17T17:23:27.839Z,98905.13
2023-01-17T17:26:31.547Z,98904.22
2023-01-17T17:29:36.059Z,98907.25
2023-01-17T17:32:38.678Z,98907.53
2023-01-17T17:35:41.242Z,98906.22
2023-01-17T17:38:51.569Z,98911.56
2023-01-17T17:41:54.140Z,98905.88
2023-01-17T17:44:58.055Z,98910.97
2023-01-17T17:48:00.651Z,98921.53
2023-01-17T17:51:03.847Z,98917.72
2023-01-17T17:54:07.299Z,98917.38
2023-01-17T17:57:10.179Z,98921.81
2023-01-17T18:00:15.121Z,98919.84
2023-01-17T18:03:17.649Z,98923.81
2023-01-17T18:06:20.249Z,98924.69
2023-01-17T18:09:22.835Z,98936.28
2023-01-17T18:12:25.412Z,98934.25
2023-01-17T18:15:29.343Z,98940.44
2023-01-17T18:18:32.272Z,98948.34
2023-01-17T18:21:35.859Z,98949.56
2023-01-17T18:24:38.423Z,98952.09
2023-01-17T18:27:42.358Z,98950.22
2023-01-17T18:30:46.238Z,98964.00
2023-01-17T18:33:48.805Z,98968.41
2023-01-17T18:36:51.587Z,98980.84
2023-01-17T18:39:54.240Z,98972.41
2023-01-17T18:42:57.489Z,98977.22
2023-01-17T18:46:01.502Z,98981.25
2023-01-17T18:49:04.099Z,98989.94
2023-01-17T18:52:07.996Z,98990.41
2023-01-17T18:55:10.610Z,98992.09
2023-01-17T18:58:13.207Z,98990.72
2023-01-17T19:01:17.863Z,98986.59
2023-01-17T19:04:20.454Z,98993.69
2023-01-17T19:07:24.026Z,99002.88
2023-01-17T19:10:26.638Z,98999.34
2023-01-17T19:13:29.221Z,99003.59
2023-01-17T19:16:34.926Z,99006.59
2023-01-17T19:19:38.043Z,99009.75
2023-01-17T19:22:41.214Z,99004.97
2023-01-17T19:25:43.762Z,99014.50
2023-01-17T19:28:47.028Z,99021.34
2023-01-17T19:31:50.953Z,99018.56
2023-01-17T19:34:53.736Z,99029.22
2023-01-17T19:37:56.577Z,99027.38
2023-01-17T19:41:10.020Z,99037.44
2023-01-17T19:44:13.343Z,99028.41
2023-01-17T19:47:17.338Z,99023.38
2023-01-17T19:50:20.104Z,99031.72
2023-01-17T19:53:22.738Z,99029.91
2023-01-17T19:56:26.404Z,99032.44
2023-01-17T19:59:28.984Z,99035.66
2023-01-17T20:02:34.598Z,99034.94
2023-01-17T20:05:37.198Z,99035.72
2023-01-17T20:08:40.089Z,99042.31
2023-01-17T20:11:43.064Z,99038.06
2023-01-17T20:14:45.600Z,99037.63
2023-01-17T20:17:49.512Z,99038.06
2023-01-17T20:20:57.323Z,99033.25
2023-01-17T20:24:03.076Z,99047.34
2023-01-17T20:27:05.711Z,99047.13
2023-01-17T20:30:19.742Z,99053.00
2023-01-17T20:33:24.263Z,99043.06
2023-01-17T20:36:28.833Z,99051.50
2023-01-17T20:39:32.656Z,99052.13
2023-01-17T20:42:36.807Z,99051.91
2023-01-17T20:45:39.412Z,99048.00
2023-01-17T20:48:45.699Z,99048.44
2023-01-17T20:51:48.424Z,99059.16
2023-01-17T20:54:51.740Z,99058.00
2023-01-17T20:57:54.436Z,99064.34
2023-01-17T21:00:57.127Z,99069.25
2023-01-17T21:04:01.064Z,99067.78
2023-01-17T21:07:03.639Z,99073.72
2023-01-17T21:10:06.988Z,99063.22
2023-01-17T21:13:09.531Z,99051.19
2023-01-17T21:16:13.943Z,99079.03
2023-01-17T21:19:17.856Z,99070.09
2023-01-17T21:22:20.424Z,99072.03
2023-01-17T21:25:23.011Z,99074.19
2023-01-17T21:28:26.591Z,99073.13
2023-01-17T21:31:31.028Z,99086.47
2023-01-17T21:34:35.121Z,99077.06
2023-01-17T21:37:38.147Z,99078.88
2023-01-17T21:40:40.818Z,99076.16
2023-01-17T21:43:43.410Z,99076.91
2023-01-17T21:46:46.347Z,99077.47
2023-01-17T21:49:50.292Z,99074.00
2023-01-17T21:52:52.873Z,99082.44
2023-01-17T21:56:18.569Z,99085.84
2023-01-17T21:59:21.087Z,99081.16
2023-01-17T22:02:23.852Z,99081.63
2023-01-17T22:05:27.792Z,99073.41
2023-01-17T22:08:32.737Z,99084.22
2023-01-17T22:11:36.954Z,99088.31
2023-01-17T22:14:39.493Z,99086.56
2023-01-17T22:17:42.398Z,99089.63
2023-01-17T22:20:46.331Z,99099.94
2023-01-17T22:23:50.078Z,99104.75
2023-01-17T22:26:52.591Z,99106.34
2023-01-17T22:29:55.167Z,99113.94
2023-01-17T22:32:58.240Z,99106.50
2023-01-17T22:36:02.385Z,99115.53
2023-01-17T22:39:05.170Z,99114.84
2023-01-17T22:42:08.224Z,99108.25
2023-01-17T22:45:11.692Z,99115.97
2023-01-17T22:48:14.227Z,99115.09
2023-01-17T22:51:18.828Z,99110.22
2023-01-17T22:54:21.520Z,99118.81
2023-01-17T22:57:24.107Z,99117.56
2023-01-17T23:00:26.687Z,99115.13
2023-01-17T23:03:29.254Z,99116.75
2023-01-17T23:06:33.718Z,99118.69
2023-01-17T23:09:36.236Z,99116.59
2023-01-17T23:12:38.861Z,99124.06
2023-01-17T23:15:59.131Z,99124.28
2023-01-17T23:19:19.471Z,99115.63
2023-01-17T23:22:24.451Z,99117.13
2023-01-17T23:25:26.978Z,99120.69
2023-01-17T23:28:28.522Z,99114.63
2023-01-17T23:31:31.102Z,99107.22
2023-01-17T23:34:33.676Z,99104.03
2023-01-17T23:37:55.194Z,99110.13
2023-01-17T23:41:19.078Z,99106.59
2023-01-17T23:44:21.648Z,99109.50
2023-01-17T23:47:24.194Z,99115.59
2023-01-17T23:50:26.735Z,99110.75
2023-01-17T23:53:30.653Z,99120.38
2023-01-17T23:56:33.197Z,99115.53
2023-01-17T23:59:35.747Z,99114.91
